| time (UTC) | temp F | wind direction | speed MPH | gust MPH | rain 1hr in | rain 24hr in | rain mn in | humidity % | barometer mb |
| 20260508210004 | 65 | 234 | 6.0 | 15.0 | 0.00 | 0.00 | 0.00 | 41 | 1004.6 |
| 20260508204559 | 64 | 211 | 4.0 | 8.0 | 0.00 | 0.00 | 0.00 | 44 | 1004.7 |
| 20260508203055 | 64 | 220 | 0.0 | 7.0 | 0.00 | 0.00 | 0.00 | 44 | 1004.9 |
| 20260508201559 | 64 | 284 | 3.0 | 11.0 | 0.00 | 0.00 | 0.00 | 44 | 1005.2 |
| 20260508200057 | 64 | 200 | 4.0 | 13.0 | 0.00 | 0.00 | 0.00 | 44 | 1005.6 |
| 20260508194541 | 64 | 238 | 4.0 | 9.0 | 0.00 | 0.00 | 0.00 | 40 | 1005.7 |
| 20260508193042 | 64 | 219 | 3.0 | 7.0 | 0.00 | 0.00 | 0.00 | 41 | 1005.9 |
| 20260508191537 | 63 | 236 | 4.0 | 12.0 | 0.00 | 0.00 | 0.00 | 41 | 1006.3 |
| 20260508190037 | 62 | 209 | 3.0 | 10.0 | 0.00 | 0.00 | 0.00 | 42 | 1006.5 |
| 20260508184525 | 62 | 223 | 2.0 | 11.0 | 0.00 | 0.00 | 0.00 | 43 | 1006.8 |
| 20260508183019 | 62 | 156 | 1.0 | 7.0 | 0.00 | 0.00 | 0.00 | 43 | 1006.9 |
| 20260508181516 | 61 | 290 | 2.0 | 9.0 | 0.00 | 0.00 | 0.00 | 41 | 1006.9 |
| 20260508180010 | 61 | 236 | 3.0 | 10.0 | 0.00 | 0.00 | 0.00 | 40 | 1007.1 |
| 20260508174513 | 62 | 253 | 3.0 | 7.0 | 0.00 | 0.00 | 0.00 | 39 | 1007.4 |
| 20260508173100 | 61 | 207 | 2.0 | 6.0 | 0.00 | 0.00 | 0.00 | 39 | 1007.7 |
| 20260508171600 | 60 | 248 | 2.0 | 7.0 | 0.00 | 0.00 | 0.00 | 41 | 1007.9 |
| 20260508170056 | 59 | 267 | 3.0 | 7.0 | 0.00 | 0.00 | 0.00 | 43 | 1008.2 |
| 20260508164549 | 58 | 306 | 3.0 | 8.0 | 0.00 | 0.00 | 0.00 | 47 | 1008.4 |
| 20260508163108 | 59 | 284 | 4.0 | 7.0 | 0.00 | 0.00 | 0.00 | 45 | 1008.7 |
| 20260508161539 | 57 | 257 | 4.0 | 7.0 | 0.00 | 0.00 | 0.00 | 48 | 1008.9 |
| 20260508160036 | 57 | 279 | 3.0 | 8.0 | 0.00 | 0.00 | 0.00 | 48 | 1009.0 |
| 20260508154530 | 57 | 238 | 1.0 | 3.0 | 0.00 | 0.00 | 0.00 | 47 | 1008.9 |
| 20260508153030 | 56 | 309 | 0.0 | 3.0 | 0.00 | 0.00 | 0.00 | 50 | 1009.1 |
| 20260508151528 | 56 | 290 | 1.0 | 3.0 | 0.00 | 0.00 | 0.00 | 48 | 1009.3 |
| 20260508150017 | 54 | 298 | 1.0 | 4.0 | 0.00 | 0.00 | 0.00 | 51 | 1009.3 |
| 20260508144511 | 55 | 308 | 0.0 | 2.0 | 0.00 | 0.00 | 0.00 | 53 | 1009.5 |
| 20260508143007 | 53 | 308 | 0.0 | 3.0 | 0.00 | 0.00 | 0.00 | 55 | 1009.6 |
| 20260508141504 | 53 | 308 | 2.0 | 5.0 | 0.00 | 0.00 | 0.00 | 54 | 1009.7 |
| 20260508140100 | 53 | 46 | 1.0 | 4.0 | 0.00 | 0.00 | 0.00 | 46 | 1009.8 |
| 20260508134600 | 52 | 317 | 0.0 | 3.0 | 0.00 | 0.00 | 0.00 | 45 | 1009.9 |
| 20260508133051 | 51 | 317 | 0.0 | 1.0 | 0.00 | 0.00 | 0.00 | 29 | 1010.0 |
| 20260508131553 | 50 | 317 | 1.0 | 3.0 | 0.00 | 0.00 | 0.00 | 26 | 1009.9 |
| 20260508130053 | 50 | 331 | 0.0 | 2.0 | 0.00 | 0.00 | 0.00 | 13 | 1009.9 |
| 20260508124537 | 49 | 331 | 0.0 | 0.0 | 0.00 | 0.00 | 0.00 | 11 | 1009.9 |
| 20260508123037 | 47 | 330 | 0.0 | 3.0 | 0.00 | 0.00 | 0.00 | 4 | 1009.8 |
| 20260508121530 | 47 | 330 | 0.0 | 2.0 | 0.00 | 0.00 | 0.00 | 1 | 1009.9 |
| 20260508120025 | 46 | 350 | 0.0 | 2.0 | 0.00 | 0.00 | 0.00 | 1 | 1009.7 |
| 20260508114521 | 45 | 351 | 0.0 | 1.0 | 0.00 | 0.00 | 0.00 | 1 | 1009.4 |
| 20260508113016 | 43 | 351 | 0.0 | 0.0 | 0.00 | 0.00 | 0.00 | 1 | 1009.3 |
| 20260508111511 | 42 | 355 | 0.0 | 1.0 | 0.00 | 0.00 | 0.00 | 1 | 1009.2 |
| 20260508110007 | 42 | 234 | 0.0 | 0.0 | 0.00 | 0.00 | 0.00 | 1 | 1009.0 |
| 20260508104502 | 42 | 234 | 0.0 | 0.0 | 0.00 | 0.00 | 0.00 | 1 | 1009.1 |
| 20260508103100 | 42 | 234 | 0.0 | 0.0 | 0.00 | 0.00 | 0.00 | 1 | 1009.0 |
| 20260508101556 | 42 | 234 | 0.0 | 0.0 | 0.00 | 0.00 | 0.00 | 1 | 1009.0 |
| 20260508100049 | 43 | 234 | 0.0 | 2.0 | 0.00 | 0.00 | 0.00 | 1 | 1008.8 |
| 20260508094553 | 43 | 234 | 0.0 | 0.0 | 0.00 | 0.00 | 0.00 | 1 | 1008.9 |
| 20260508093053 | 44 | 234 | 0.0 | 0.0 | 0.00 | 0.00 | 0.00 | 1 | 1008.9 |
| 20260508091539 | 44 | 234 | 0.0 | 0.0 | 0.00 | 0.00 | 0.00 | 1 | 1008.9 |
| 20260508090052 | 44 | 234 | 0.0 | 0.0 | 0.00 | 0.00 | 0.00 | 1 | 1008.8 |
| 20260508084528 | 45 | 234 | 0.0 | 0.0 | 0.00 | 0.00 | 0.00 | 4 | 1008.8 |
| 20260508083026 | 45 | 234 | 0.0 | 2.0 | 0.00 | 0.00 | 0.00 | 4 | 1008.8 |
| 20260508081519 | 45 | 234 | 0.0 | 2.0 | 0.00 | 0.00 | 0.00 | 5 | 1009.1 |
| 20260508080020 | 46 | 234 | 0.0 | 0.0 | 0.00 | 0.00 | 0.00 | 8 | 1008.9 |
| 20260508074514 | 46 | 234 | 0.0 | 3.0 | 0.00 | 0.00 | 0.00 | 8 | 1009.3 |
| 20260508073008 | 46 | 234 | 0.0 | 0.0 | 0.00 | 0.00 | 0.00 | 6 | 1009.2 |
| 20260508071504 | 45 | 234 | 0.0 | 2.0 | 0.00 | 0.00 | 0.00 | 5 | 1009.2 |
| 20260508070057 | 45 | 234 | 0.0 | 0.0 | 0.00 | 0.00 | 0.00 | 1 | 1009.1 |
| 20260508064552 | 44 | 234 | 0.0 | 0.0 | 0.00 | 0.00 | 0.00 | 3 | 1009.2 |
| 20260508063052 | 44 | 234 | 0.0 | 0.0 | 0.00 | 0.00 | 0.00 | 8 | 1009.3 |
| 20260508061544 | 45 | 234 | 0.0 | 0.0 | 0.00 | 0.00 | 0.00 | 12 | 1009.2 |
| 20260508060043 | 45 | 234 | 0.0 | 0.0 | 0.00 | 0.00 | 0.00 | 18 | 1009.3 |
| 20260508054549 | 46 | 234 | 0.0 | 0.0 | 0.00 | 0.00 | 0.00 | 27 | 1009.4 |
| 20260508053037 | 47 | 234 | 0.0 | 0.0 | 0.00 | 0.00 | 0.00 | 37 | 1009.4 |
| 20260508051531 | 48 | 234 | 0.0 | 0.0 | 0.00 | 0.00 | 0.00 | 42 | 1009.4 |
| 20260508050029 | 48 | 234 | 0.0 | 1.0 | 0.00 | 0.00 | 0.00 | 44 | 1009.5 |
| 20260508044525 | 48 | 234 | 0.0 | 3.0 | 0.00 | 0.00 | 0.00 | 48 | 1009.5 |
| 20260508043022 | 49 | 234 | 0.0 | 5.0 | 0.00 | 0.00 | 0.00 | 51 | 1009.3 |
| 20260508041521 | 49 | 235 | 0.0 | 4.0 | 0.00 | 0.00 | 0.00 | 54 | 1009.2 |
| 20260508040019 | 50 | 235 | 0.0 | 5.0 | 0.00 | 0.00 | 0.00 | 55 | 1009.2 |
| 20260508034517 | 50 | 243 | 0.0 | 5.0 | 0.00 | 0.00 | 0.00 | 56 | 1009.2 |
| 20260508033016 | 50 | 243 | 1.0 | 3.0 | 0.00 | 0.00 | 0.00 | 56 | 1009.4 |
| 20260508031503 | 50 | 243 | 0.0 | 0.0 | 0.00 | 0.00 | 0.00 | 56 | 1009.7 |
| 20260508030114 | 51 | 243 | 0.0 | 0.0 | 0.00 | 0.00 | 0.00 | 56 | 1009.8 |
| 20260508024605 | 51 | 243 | 0.0 | 3.0 | 0.00 | 0.00 | 0.00 | 55 | 1009.8 |
| 20260508023050 | 51 | 242 | 1.0 | 7.0 | 0.00 | 0.00 | 0.00 | 54 | 1009.7 |
| 20260508021649 | 52 | 284 | 5.0 | 15.0 | 0.00 | 0.00 | 0.00 | 51 | 1009.8 |
| 20260508020047 | 52 | 288 | 3.0 | 7.0 | 0.00 | 0.00 | 0.00 | 49 | 1009.7 |
| 20260508014546 | 52 | 281 | 3.0 | 7.0 | 0.00 | 0.00 | 0.00 | 48 | 1009.5 |
| 20260508013045 | 52 | 236 | 3.0 | 6.0 | 0.00 | 0.00 | 0.00 | 48 | 1009.3 |
| 20260508011554 | 52 | 288 | 0.0 | 0.0 | 0.00 | 0.00 | 0.00 | 48 | 1009.1 |
| 20260508010045 | 52 | 288 | 0.0 | 3.0 | 0.00 | 0.00 | 0.00 | 47 | 1008.8 |
| 20260508004543 | 52 | 287 | 1.0 | 5.0 | 0.00 | 0.00 | 0.00 | 45 | 1008.8 |
| 20260508003039 | 53 | 278 | 2.0 | 6.0 | 0.00 | 0.00 | 0.00 | 44 | 1008.8 |
| 20260508001537 | 53 | 297 | 1.0 | 3.0 | 0.00 | 0.00 | 0.00 | 44 | 1008.8 |
| 20260508000033 | 54 | 272 | 2.0 | 8.0 | 0.00 | 0.00 | 0.00 | 43 | 1008.8 |
| 20260507234533 | 54 | 279 | 5.0 | 11.0 | 0.00 | 0.00 | 0.00 | 42 | 1008.7 |
| 20260507233021 | 54 | 277 | 3.0 | 9.0 | 0.00 | 0.00 | 0.00 | 42 | 1008.8 |
| 20260507231517 | 55 | 280 | 2.0 | 7.0 | 0.00 | 0.00 | 0.00 | 42 | 1008.8 |
| 20260507230014 | 55 | 293 | 5.0 | 11.0 | 0.00 | 0.00 | 0.00 | 40 | 1008.8 |
| 20260507224511 | 55 | 294 | 4.0 | 10.0 | 0.00 | 0.00 | 0.00 | 39 | 1008.9 |
| 20260507223006 | 55 | 275 | 5.0 | 10.0 | 0.00 | 0.00 | 0.00 | 38 | 1008.9 |
| 20260507221502 | 55 | 286 | 3.0 | 12.0 | 0.00 | 0.00 | 0.00 | 39 | 1009.1 |
| 20260507220058 | 55 | 283 | 5.0 | 12.0 | 0.00 | 0.00 | 0.00 | 39 | 1009.1 |
| 20260507214554 | 55 | 292 | 4.0 | 14.0 | 0.00 | 0.00 | 0.00 | 40 | 1009.0 |
| 20260507213051 | 56 | 303 | 3.0 | 11.0 | 0.00 | 0.00 | 0.00 | 40 | 1009.0 |
| 20260507211544 | 55 | 274 | 4.0 | 12.0 | 0.00 | 0.00 | 0.00 | 40 | 1009.0 |
| 20260507210106 | 55 | 283 | 7.0 | 16.0 | 0.00 | 0.00 | 0.00 | 38 | 1009.0 |